createdAt,value
2017-09-13T00:00:31.893Z,39
2017-09-13T00:01:30.813Z,39
2017-09-13T00:02:30.271Z,39
2017-09-13T00:03:31.505Z,39
2017-09-13T00:04:32.291Z,39
2017-09-13T00:05:33.591Z,39
2017-09-13T00:06:33.789Z,39
2017-09-13T00:07:32.471Z,39
2017-09-13T00:08:33.662Z,39.1
2017-09-13T00:09:32.980Z,39.1
2017-09-13T00:10:33.961Z,39.1
2017-09-13T00:11:31.228Z,39.1
2017-09-13T00:12:30.738Z,39.1
2017-09-13T00:13:30.974Z,39.1
2017-09-13T00:14:31.668Z,39.1
2017-09-13T00:15:34.029Z,39.1
2017-09-13T00:16:31.585Z,39.1
2017-09-13T00:17:32.690Z,39.1
2017-09-13T00:18:34.213Z,39.1
2017-09-13T00:19:35.379Z,39.1
2017-09-13T00:20:31.780Z,39.1
2017-09-13T00:21:32.876Z,39.1
2017-09-13T00:22:32.920Z,39.1
2017-09-13T00:23:31.226Z,39.1
2017-09-13T00:24:31.592Z,39.1
2017-09-13T00:25:31.592Z,39.1
2017-09-13T00:26:34.751Z,39.1
2017-09-13T00:27:34.602Z,39.1
2017-09-13T00:28:31.515Z,39.1
2017-09-13T00:29:31.378Z,39.1
2017-09-13T00:30:34.923Z,39.1
2017-09-13T00:31:31.742Z,39.1
2017-09-13T00:32:32.223Z,39.1
2017-09-13T00:33:34.950Z,39.1
2017-09-13T00:34:35.152Z,39.1
2017-09-13T00:35:31.799Z,39.1
2017-09-13T00:36:31.660Z,39.1
2017-09-13T00:37:32.016Z,39.1
2017-09-13T00:38:35.239Z,39.1
2017-09-13T00:39:31.888Z,39.1
2017-09-13T00:40:33.743Z,39.1
2017-09-13T00:41:31.905Z,39.1
2017-09-13T00:42:31.927Z,39.1
2017-09-13T00:43:32.229Z,39.2
2017-09-13T00:44:33.910Z,39.2
2017-09-13T00:45:32.051Z,39.2
2017-09-13T00:46:32.308Z,39.2
2017-09-13T00:47:32.294Z,39.2
2017-09-13T00:48:35.118Z,39.3
2017-09-13T00:49:34.705Z,39.3
2017-09-13T00:50:32.610Z,39.3
2017-09-13T00:51:32.685Z,39.3
2017-09-13T00:52:34.594Z,39.3
2017-09-13T00:53:34.654Z,39.3
2017-09-13T00:54:36.102Z,39.3
2017-09-13T00:55:36.218Z,39.3
2017-09-13T00:56:34.779Z,39.3
2017-09-13T00:57:34.835Z,39.3
2017-09-13T00:58:32.923Z,39.4
2017-09-13T00:59:32.815Z,39.4
2017-09-13T01:00:32.870Z,39.4
2017-09-13T01:01:33.215Z,39.4
2017-09-13T01:02:36.335Z,39.4
2017-09-13T01:03:33.068Z,39.4
2017-09-13T01:04:36.459Z,39.5
2017-09-13T01:05:35.283Z,39.5
2017-09-13T01:06:33.402Z,39.5
2017-09-13T01:07:35.472Z,39.5
2017-09-13T01:08:33.408Z,39.5
2017-09-13T01:09:33.408Z,39.5
2017-09-13T01:10:33.473Z,39.6
2017-09-13T01:11:33.552Z,39.6
2017-09-13T01:12:37.675Z,39.6
2017-09-13T01:13:37.432Z,39.6
2017-09-13T01:14:34.915Z,39.6
2017-09-13T01:15:35.181Z,39.6
2017-09-13T01:16:34.496Z,39.6
2017-09-13T01:17:34.108Z,39.7
2017-09-13T01:18:36.240Z,39.7
2017-09-13T01:19:34.268Z,39.8
2017-09-13T01:20:34.991Z,39.8
2017-09-13T01:21:34.028Z,39.8
2017-09-13T01:22:34.141Z,39.8
2017-09-13T01:23:36.541Z,39.8
2017-09-13T01:24:34.363Z,39.8
2017-09-13T01:25:36.699Z,39.7
2017-09-13T01:26:38.389Z,39.8
2017-09-13T01:27:36.102Z,39.8
2017-09-13T01:28:34.503Z,39.8
2017-09-13T01:29:40.534Z,39.8
2017-09-13T01:30:38.855Z,39.9
2017-09-13T01:31:38.454Z,39.8
2017-09-13T01:32:35.324Z,39.9
2017-09-13T01:33:34.969Z,39.8
2017-09-13T01:34:37.456Z,39.9
2017-09-13T01:35:36.546Z,39.9
2017-09-13T01:36:36.834Z,39.9
2017-09-13T01:37:38.571Z,39.9
2017-09-13T01:38:36.756Z,39.8
2017-09-13T01:39:35.117Z,39.9
2017-09-13T01:40:36.289Z,39.9
2017-09-13T01:41:38.719Z,39.8
2017-09-13T01:42:35.987Z,39.8
2017-09-13T01:43:35.596Z,39.8
2017-09-13T01:44:35.144Z,39.8
2017-09-13T01:45:38.104Z,39.8
2017-09-13T01:46:40.077Z,39.8
2017-09-13T01:47:37.979Z,39.8
2017-09-13T01:48:35.677Z,39.8
2017-09-13T01:49:38.466Z,39.8
2017-09-13T01:50:38.292Z,39.9
2017-09-13T01:51:38.815Z,39.9
2017-09-13T01:52:38.973Z,39.9
2017-09-13T01:53:39.128Z,39.9
2017-09-13T01:54:36.477Z,39.9
2017-09-13T01:55:36.385Z,39.8
2017-09-13T01:56:36.384Z,39.9
2017-09-13T01:57:35.853Z,39.9
2017-09-13T01:58:38.692Z,39.9
2017-09-13T01:59:35.835Z,39.8
2017-09-13T02:00:36.066Z,39.8
2017-09-13T02:01:36.384Z,39.9
2017-09-13T02:02:35.945Z,39.9
2017-09-13T02:03:35.936Z,39.9
2017-09-13T02:04:35.985Z,39.8
2017-09-13T02:05:39.414Z,39.8
2017-09-13T02:06:40.977Z,39.8
2017-09-13T02:07:36.803Z,39.8
2017-09-13T02:08:37.101Z,39.8
2017-09-13T02:09:38.269Z,39.8
2017-09-13T02:10:38.466Z,39.8
2017-09-13T02:11:37.621Z,39.9
2017-09-13T02:12:39.777Z,39.9
2017-09-13T02:13:40.296Z,39.9
2017-09-13T02:14:39.897Z,40
2017-09-13T02:15:38.568Z,40
2017-09-13T02:16:40.104Z,40
2017-09-13T02:17:37.062Z,40
2017-09-13T02:18:40.382Z,40.1
2017-09-13T02:19:37.168Z,40.1
2017-09-13T02:20:38.848Z,40.2
2017-09-13T02:21:40.526Z,40.2
2017-09-13T02:22:37.019Z,40.3
2017-09-13T02:23:39.206Z,40.3
2017-09-13T02:24:37.413Z,40.5
2017-09-13T02:25:37.716Z,40.5
2017-09-13T02:26:39.892Z,40.6
2017-09-13T02:27:37.392Z,40.7
2017-09-13T02:28:39.471Z,40.8
2017-09-13T02:29:40.846Z,40.9
2017-09-13T02:30:39.619Z,40.9
2017-09-13T02:31:40.036Z,41
2017-09-13T02:32:39.744Z,41.1
2017-09-13T02:33:39.610Z,41.1
2017-09-13T02:34:41.299Z,41.2
2017-09-13T02:35:39.788Z,41.3
2017-09-13T02:36:38.829Z,41.4
2017-09-13T02:37:38.202Z,41.4
2017-09-13T02:38:38.242Z,41.5
2017-09-13T02:39:40.155Z,41.6
2017-09-13T02:40:38.759Z,41.6
2017-09-13T02:41:38.092Z,41.7
2017-09-13T02:42:41.503Z,41.8
2017-09-13T02:43:38.394Z,42
2017-09-13T02:44:38.103Z,42
2017-09-13T02:45:40.080Z,42.1
2017-09-13T02:46:38.182Z,42.1
2017-09-13T02:47:41.578Z,42.2
2017-09-13T02:48:41.850Z,42.2
2017-09-13T02:49:42.140Z,42.3
2017-09-13T02:50:41.938Z,42.4
2017-09-13T02:51:39.018Z,42.4
2017-09-13T02:52:38.545Z,42.4
2017-09-13T02:53:40.708Z,42.5
2017-09-13T02:54:38.645Z,42.6
2017-09-13T02:55:38.997Z,42.6
2017-09-13T02:56:38.740Z,42.6
2017-09-13T02:57:38.999Z,42.7
2017-09-13T02:58:42.181Z,42.8
2017-09-13T02:59:39.015Z,42.8
2017-09-13T03:00:39.010Z,42.9
2017-09-13T03:01:39.319Z,43
2017-09-13T03:02:38.850Z,43
2017-09-13T03:03:39.496Z,43
2017-09-13T03:04:38.891Z,43
2017-09-13T03:05:39.178Z,43
2017-09-13T03:06:39.035Z,43.1
2017-09-13T03:07:39.505Z,43.1
2017-09-13T03:08:41.013Z,43.2
2017-09-13T03:09:39.308Z,43.2
2017-09-13T03:10:41.313Z,43.2
2017-09-13T03:11:41.383Z,43.2
2017-09-13T03:12:39.327Z,43.2
2017-09-13T03:13:39.859Z,43.3
2017-09-13T03:14:39.401Z,43.3
2017-09-13T03:15:41.367Z,43.3
2017-09-13T03:16:39.491Z,43.3
2017-09-13T03:17:43.069Z,43.3
2017-09-13T03:18:39.574Z,43.3
2017-09-13T03:19:40.487Z,43.3
2017-09-13T03:20:39.858Z,43.3
2017-09-13T03:21:41.848Z,43.3
2017-09-13T03:22:39.778Z,43.3
2017-09-13T03:23:39.849Z,43.3
2017-09-13T03:24:40.018Z,43.4
2017-09-13T03:25:40.190Z,43.4
2017-09-13T03:26:39.935Z,43.5
2017-09-13T03:27:47.394Z,43.5
2017-09-13T03:28:43.496Z,43.5
2017-09-13T03:29:42.061Z,43.5
2017-09-13T03:30:43.726Z,43.5
2017-09-13T03:31:40.472Z,43.6
2017-09-13T03:32:42.411Z,43.6
2017-09-13T03:33:40.366Z,43.6
2017-09-13T03:34:42.308Z,43.7
2017-09-13T03:35:42.359Z,43.7
2017-09-13T03:36:40.678Z,43.7
2017-09-13T03:37:42.922Z,43.7
2017-09-13T03:38:42.468Z,43.7
2017-09-13T03:39:40.562Z,43.8
2017-09-13T03:40:40.830Z,43.8
2017-09-13T03:41:40.820Z,43.8
2017-09-13T03:42:42.876Z,43.8
2017-09-13T03:43:43.514Z,43.8
2017-09-13T03:44:44.240Z,43.9
2017-09-13T03:45:40.865Z,43.9
2017-09-13T03:46:41.165Z,43.9
2017-09-13T03:47:41.218Z,43.9
2017-09-13T03:48:41.269Z,43.9
2017-09-13T03:49:41.478Z,44
2017-09-13T03:50:43.254Z,44.1
2017-09-13T03:51:41.151Z,44.2
2017-09-13T03:52:41.390Z,44.2
2017-09-13T03:53:41.514Z,44.2
2017-09-13T03:54:41.568Z,44.2
2017-09-13T03:55:43.740Z,44.2
2017-09-13T03:56:43.339Z,44.3
2017-09-13T03:57:43.575Z,44.3
2017-09-13T03:58:44.887Z,44.4
2017-09-13T03:59:41.707Z,44.4
2017-09-13T04:00:41.725Z,44.4
2017-09-13T04:01:43.717Z,44.4
2017-09-13T04:02:41.843Z,44.5
2017-09-13T04:03:45.044Z,44.5
2017-09-13T04:04:41.770Z,44.6
2017-09-13T04:05:41.802Z,44.7
2017-09-13T04:06:43.942Z,44.7
2017-09-13T04:07:42.133Z,44.7
2017-09-13T04:08:43.760Z,44.7
2017-09-13T04:09:44.064Z,44.7
2017-09-13T04:10:43.864Z,44.7
2017-09-13T04:11:43.881Z,44.8
2017-09-13T04:12:41.990Z,44.8
2017-09-13T04:13:42.295Z,44.9
2017-09-13T04:14:42.047Z,44.9
2017-09-13T04:15:45.475Z,45
2017-09-13T04:16:45.730Z,45
2017-09-13T04:17:45.762Z,45.1
2017-09-13T04:18:44.375Z,45.1
2017-09-13T04:19:44.527Z,45.1
2017-09-13T04:20:42.342Z,45.1
2017-09-13T04:21:45.876Z,45.1
2017-09-13T04:22:42.604Z,45.1
2017-09-13T04:23:44.346Z,45.2
2017-09-13T04:24:42.503Z,45.2
2017-09-13T04:25:42.849Z,45.2
2017-09-13T04:26:46.133Z,45.2
2017-09-13T04:27:42.856Z,45.2
2017-09-13T04:28:44.577Z,45.2
2017-09-13T04:29:42.766Z,45.2
2017-09-13T04:30:46.376Z,45.2
2017-09-13T04:31:43.218Z,45.2
2017-09-13T04:32:45.077Z,45.2
2017-09-13T04:33:43.168Z,45.2
2017-09-13T04:34:42.986Z,45.2
2017-09-13T04:35:47.216Z,45.3
2017-09-13T04:36:43.121Z,45.3
2017-09-13T04:37:46.251Z,45.4
2017-09-13T04:38:50.656Z,45.3
2017-09-13T04:39:43.520Z,45.4
2017-09-13T04:40:45.319Z,45.4
2017-09-13T04:41:43.362Z,45.4
2017-09-13T04:42:45.318Z,45.4
2017-09-13T04:43:43.775Z,45.5
2017-09-13T04:44:49.878Z,45.5
2017-09-13T04:45:45.672Z,45.5
2017-09-13T04:46:45.707Z,45.6
2017-09-13T04:47:45.752Z,45.6
2017-09-13T04:48:45.582Z,45.6
2017-09-13T04:49:44.030Z,45.6
2017-09-13T04:50:44.569Z,45.6
2017-09-13T04:51:45.723Z,45.6
2017-09-13T04:52:43.910Z,45.6
2017-09-13T04:53:45.892Z,45.7
2017-09-13T04:54:44.179Z,45.7
2017-09-13T04:55:44.351Z,45.7
2017-09-13T04:56:44.878Z,45.7
2017-09-13T04:57:44.187Z,45.7
2017-09-13T04:58:44.212Z,45.8
2017-09-13T04:59:44.403Z,45.8
2017-09-13T05:00:47.585Z,45.8
2017-09-13T05:01:48.100Z,45.7
2017-09-13T05:02:49.255Z,45.6
2017-09-13T05:03:45.694Z,45.7
2017-09-13T05:04:47.951Z,45.7
2017-09-13T05:05:46.361Z,45.7
2017-09-13T05:06:44.666Z,45.7
2017-09-13T05:07:46.898Z,45.7
2017-09-13T05:08:48.155Z,45.7
2017-09-13T05:09:48.040Z,45.8
2017-09-13T05:10:44.666Z,45.9
2017-09-13T05:11:48.090Z,46
2017-09-13T05:12:49.008Z,46
2017-09-13T05:13:47.107Z,46
2017-09-13T05:14:45.220Z,46
2017-09-13T05:15:48.633Z,45.9
2017-09-13T05:16:45.137Z,45.9
2017-09-13T05:17:45.124Z,45.9
2017-09-13T05:18:45.188Z,45.9
2017-09-13T05:19:45.516Z,45.9
2017-09-13T05:20:45.498Z,45.9
2017-09-13T05:21:55.065Z,46
2017-09-13T05:22:49.851Z,46
2017-09-13T05:23:48.945Z,46.1
2017-09-13T05:24:46.130Z,46.1
2017-09-13T05:25:49.400Z,46.1
2017-09-13T05:26:47.515Z,46.1
2017-09-13T05:27:45.825Z,46.2
2017-09-13T05:28:46.765Z,46.2
2017-09-13T05:29:47.889Z,46.2
2017-09-13T05:30:45.997Z,46.2
2017-09-13T05:31:49.476Z,46.3
2017-09-13T05:32:45.918Z,46.3
2017-09-13T05:33:46.117Z,46.3
2017-09-13T05:34:46.224Z,46.3
2017-09-13T05:35:46.093Z,46.3
2017-09-13T05:36:46.228Z,46.4
2017-09-13T05:37:49.744Z,46.5
2017-09-13T05:38:46.219Z,46.5
2017-09-13T05:39:46.378Z,46.5
2017-09-13T05:40:46.547Z,46.5
2017-09-13T05:41:49.954Z,46.6
2017-09-13T05:42:46.503Z,46.6
2017-09-13T05:43:47.054Z,46.6
2017-09-13T05:44:48.545Z,46.7
2017-09-13T05:45:46.709Z,46.6
2017-09-13T05:46:48.560Z,46.6
2017-09-13T05:47:50.219Z,46.6
2017-09-13T05:48:53.939Z,46.6
2017-09-13T05:49:47.591Z,46.6
2017-09-13T05:50:48.962Z,46.6
2017-09-13T05:51:59.165Z,46.6
2017-09-13T05:52:57.495Z,46.6
2017-09-13T05:53:47.229Z,46.7
2017-09-13T05:54:47.482Z,46.7
2017-09-13T05:55:51.172Z,46.8
2017-09-13T05:56:47.345Z,46.8
2017-09-13T05:57:47.390Z,46.8
2017-09-13T05:58:49.450Z,47
2017-09-13T05:59:47.618Z,47
2017-09-13T06:00:49.661Z,47.1
2017-09-13T06:01:51.575Z,47.2
2017-09-13T06:02:51.353Z,47.2
2017-09-13T06:03:47.944Z,47.2
2017-09-13T06:04:50.323Z,47.2
2017-09-13T06:05:51.800Z,47.1
2017-09-13T06:06:48.434Z,47.1
2017-09-13T06:07:49.993Z,47.2
2017-09-13T06:08:48.371Z,47.2
2017-09-13T06:09:48.344Z,47.2
2017-09-13T06:10:48.210Z,47.3
2017-09-13T06:11:50.436Z,47.3
2017-09-13T06:12:50.530Z,47.3
2017-09-13T06:13:48.522Z,47.2
2017-09-13T06:14:48.683Z,47.3
2017-09-13T06:15:48.725Z,47.3
2017-09-13T06:16:50.704Z,47.3
2017-09-13T06:17:48.568Z,47.4
2017-09-13T06:18:48.828Z,47.4
2017-09-13T06:19:50.885Z,47.5
2017-09-13T06:20:49.437Z,47.5
2017-09-13T06:21:49.010Z,47.6
2017-09-13T06:22:52.368Z,47.7
2017-09-13T06:23:48.981Z,47.6
2017-09-13T06:24:49.067Z,47.6
2017-09-13T06:26:01.703Z,47.6
2017-09-13T06:26:54.555Z,47.6
2017-09-13T06:27:52.156Z,47.6
2017-09-13T06:28:49.250Z,47.6
2017-09-13T06:29:50.967Z,47.6
2017-09-13T06:30:49.552Z,47.7
2017-09-13T06:31:51.938Z,47.7
2017-09-13T06:32:52.071Z,47.8
2017-09-13T06:33:52.872Z,47.7
2017-09-13T06:34:51.899Z,47.7
2017-09-13T06:35:49.728Z,47.7
2017-09-13T06:36:49.708Z,47.8
2017-09-13T06:37:50.950Z,47.8
2017-09-13T06:38:49.606Z,47.8
2017-09-13T06:39:51.735Z,47.8
2017-09-13T06:40:51.823Z,47.9
2017-09-13T06:41:53.233Z,48
2017-09-13T06:42:53.373Z,48
2017-09-13T06:43:53.403Z,48
2017-09-13T06:44:50.608Z,48
2017-09-13T06:45:50.353Z,48.1
2017-09-13T06:46:53.008Z,48.1
2017-09-13T06:47:54.190Z,48.2
2017-09-13T06:48:52.206Z,48.1
2017-09-13T06:49:50.858Z,48.1
2017-09-13T06:50:52.279Z,48
2017-09-13T06:51:52.495Z,48
2017-09-13T06:52:53.780Z,48
2017-09-13T06:53:54.290Z,48.1
2017-09-13T06:54:50.383Z,48
2017-09-13T06:55:50.887Z,48
2017-09-13T06:56:52.295Z,48
2017-09-13T06:57:52.702Z,48
2017-09-13T06:58:54.314Z,48
2017-09-13T06:59:50.546Z,47.9
2017-09-13T07:00:52.561Z,47.9
2017-09-13T07:01:51.136Z,47.9
2017-09-13T07:02:50.915Z,47.9
2017-09-13T07:03:50.762Z,47.9
2017-09-13T07:04:50.735Z,47.9
2017-09-13T07:05:56.686Z,47.9
2017-09-13T07:06:53.472Z,47.9
2017-09-13T07:07:51.334Z,47.9
2017-09-13T07:08:51.185Z,48
2017-09-13T07:09:53.081Z,48
2017-09-13T07:10:52.969Z,48
2017-09-13T07:11:51.976Z,48
2017-09-13T07:12:54.997Z,48
2017-09-13T07:13:53.733Z,47.9
2017-09-13T07:14:53.286Z,47.8
2017-09-13T07:15:51.508Z,47.7
2017-09-13T07:16:53.576Z,47.5
2017-09-13T07:17:53.702Z,47.4
2017-09-13T07:18:51.885Z,47.4
2017-09-13T07:19:54.876Z,47.3
2017-09-13T07:20:54.887Z,47.3
2017-09-13T07:21:52.524Z,47.2
2017-09-13T07:22:51.601Z,47.2
2017-09-13T07:23:56.149Z,47.1
2017-09-13T07:24:56.516Z,47.2
2017-09-13T07:25:54.819Z,47.2
2017-09-13T07:27:10.173Z,47.1
2017-09-13T07:27:55.296Z,47.1
2017-09-13T07:28:55.854Z,47.1
2017-09-13T07:29:53.145Z,47
2017-09-13T07:30:55.345Z,47
2017-09-13T07:31:56.541Z,47
2017-09-13T07:32:54.786Z,47
2017-09-13T07:33:55.571Z,46.9
2017-09-13T07:34:55.523Z,46.9
2017-09-13T07:35:54.919Z,46.9
2017-09-13T07:36:56.577Z,46.8
2017-09-13T07:37:56.985Z,46.8
2017-09-13T07:38:57.427Z,46.7
2017-09-13T07:39:55.206Z,46.7
2017-09-13T07:40:55.150Z,46.6
2017-09-13T07:41:52.549Z,46.5
2017-09-13T07:42:54.493Z,46.4
2017-09-13T07:43:54.756Z,46.5
2017-09-13T07:44:52.673Z,46.5
2017-09-13T07:45:53.687Z,46.5
2017-09-13T07:46:57.350Z,46.4
2017-09-13T07:47:53.104Z,46.3
2017-09-13T07:48:52.979Z,46.3
2017-09-13T07:49:55.194Z,46.3
2017-09-13T07:50:58.163Z,46.2
2017-09-13T07:51:55.276Z,46.2
2017-09-13T07:52:56.631Z,46.1
2017-09-13T07:53:58.111Z,46.1
2017-09-13T07:54:53.731Z,46.1
2017-09-13T07:55:54.040Z,46.1
2017-09-13T07:56:54.589Z,46
2017-09-13T07:57:56.962Z,46
2017-09-13T07:58:54.092Z,45.8
2017-09-13T07:59:54.452Z,45.8
2017-09-13T08:00:58.151Z,45.7
2017-09-13T08:01:56.325Z,45.7
2017-09-13T08:02:59.259Z,45.5
2017-09-13T08:03:53.936Z,45.5
2017-09-13T08:04:56.463Z,45.4
2017-09-13T08:05:53.922Z,45.4
2017-09-13T08:06:54.367Z,45.4
2017-09-13T08:11:46.936Z,45.3
2017-09-13T08:12:44.901Z,45.4
2017-09-13T08:13:44.525Z,45.5
2017-09-13T08:14:48.646Z,45.5
2017-09-13T08:15:47.555Z,45.5
2017-09-13T08:16:46.627Z,45.4
2017-09-13T08:17:47.903Z,45.3
2017-09-13T08:18:44.617Z,45.3
2017-09-13T08:19:49.125Z,45.3
2017-09-13T08:20:44.647Z,45.3
2017-09-13T08:21:46.092Z,45.3
2017-09-13T08:22:48.532Z,45.3
2017-09-13T08:23:45.024Z,45.3
2017-09-13T08:24:45.020Z,45.3
2017-09-13T08:25:46.522Z,45.3
2017-09-13T08:26:47.078Z,45.2
2017-09-13T08:27:48.329Z,45.2
2017-09-13T08:28:47.451Z,45.2
2017-09-13T08:29:49.009Z,45.2
2017-09-13T08:30:46.052Z,45.2
2017-09-13T08:31:45.922Z,45.2
2017-09-13T08:32:50.881Z,45.1
2017-09-13T08:33:45.371Z,45
2017-09-13T08:34:45.841Z,45
2017-09-13T08:39:24.716Z,44.8
2017-09-13T08:40:24.729Z,44.8
2017-09-13T08:41:22.638Z,44.8
2017-09-13T08:42:21.574Z,44.8
2017-09-13T08:43:22.246Z,44.8
2017-09-13T08:44:23.360Z,44.8
2017-09-13T08:45:23.820Z,44.7
2017-09-13T08:46:22.075Z,44.7
2017-09-13T08:47:24.869Z,44.7
2017-09-13T08:48:23.525Z,44.6
2017-09-13T08:49:22.450Z,44.5
2017-09-13T08:50:22.824Z,44.5
2017-09-13T08:51:26.501Z,44.4
2017-09-13T08:52:23.999Z,44.3
2017-09-13T08:53:22.489Z,44.3
2017-09-13T08:54:24.040Z,44.1
2017-09-13T08:55:23.768Z,43.9
2017-09-13T08:56:24.426Z,43.7
2017-09-13T08:57:25.226Z,43.5
2017-09-13T08:58:26.664Z,43.4
2017-09-13T08:59:24.128Z,43.2
2017-09-13T09:00:22.835Z,43.2
2017-09-13T09:01:27.562Z,43.1
2017-09-13T09:02:25.255Z,43.1
2017-09-13T09:03:22.443Z,43
2017-09-13T09:04:22.531Z,43
2017-09-13T09:05:23.299Z,43
2017-09-13T09:06:26.107Z,42.9
2017-09-13T09:07:22.572Z,42.9
2017-09-13T09:08:23.774Z,42.8
2017-09-13T09:09:24.799Z,42.8
2017-09-13T09:10:26.380Z,42.7
2017-09-13T09:11:22.877Z,42.6
2017-09-13T09:12:25.993Z,42.6
2017-09-13T09:13:26.846Z,42.5
2017-09-13T09:14:26.958Z,42.5
2017-09-13T09:15:22.999Z,42.4
2017-09-13T09:16:25.836Z,42.4
2017-09-13T09:17:25.762Z,42.3
2017-09-13T09:18:28.546Z,42.3
2017-09-13T09:19:26.558Z,42.2
2017-09-13T09:20:27.962Z,42.2
2017-09-13T09:21:23.880Z,42.2
2017-09-13T09:22:26.055Z,42.2
2017-09-13T09:23:28.747Z,42.2
2017-09-13T09:24:24.149Z,42.1
2017-09-13T09:25:26.947Z,42
2017-09-13T09:26:28.702Z,41.9
2017-09-13T09:27:23.825Z,41.9
2017-09-13T09:28:28.710Z,41.8
2017-09-13T09:29:24.748Z,41.7
2017-09-13T09:30:24.549Z,41.7
2017-09-13T09:31:27.463Z,41.7
2017-09-13T09:32:24.817Z,41.6
2017-09-13T09:33:25.435Z,41.6
2017-09-13T09:34:26.465Z,41.5
2017-09-13T09:35:27.173Z,41.4
2017-09-13T09:36:27.963Z,41.4
2017-09-13T09:37:26.077Z,41.3
2017-09-13T09:38:29.138Z,41.3
2017-09-13T09:39:24.721Z,41.3
2017-09-13T09:40:26.541Z,41.2
2017-09-13T09:41:24.918Z,41.2
2017-09-13T09:42:24.277Z,41.1
2017-09-13T09:43:29.719Z,41.1
2017-09-13T09:44:26.482Z,40.9
2017-09-13T09:45:25.668Z,40.8
2017-09-13T09:46:27.608Z,40.8
2017-09-13T09:47:26.264Z,40.7
2017-09-13T09:48:25.286Z,40.7
2017-09-13T09:49:26.329Z,40.7
2017-09-13T09:50:26.086Z,40.6
2017-09-13T09:51:30.981Z,40.6
2017-09-13T09:52:25.964Z,40.5
2017-09-13T09:53:25.550Z,40.5
2017-09-13T09:54:26.664Z,40.5
2017-09-13T09:55:27.238Z,40.5
2017-09-13T09:56:25.296Z,40.5
2017-09-13T09:57:25.096Z,40.4
2017-09-13T09:58:30.785Z,40.4
2017-09-13T09:59:25.065Z,40.3
2017-09-13T10:00:28.511Z,40.2
2017-09-13T10:01:28.724Z,40.2
2017-09-13T10:02:29.238Z,40.2
2017-09-13T10:03:33.826Z,40.1
2017-09-13T10:04:27.457Z,40.1
2017-09-13T10:05:25.359Z,40
2017-09-13T10:06:28.590Z,39.9
2017-09-13T10:07:28.670Z,39.9
2017-09-13T10:08:29.777Z,39.8
2017-09-13T10:09:28.980Z,39.8
2017-09-13T10:10:28.767Z,39.7
2017-09-13T10:11:26.092Z,39.5
2017-09-13T10:12:30.437Z,39.5
2017-09-13T10:13:29.850Z,39.4
2017-09-13T10:14:26.848Z,39.4
2017-09-13T10:15:29.357Z,39.4
2017-09-13T10:16:30.176Z,39.4
2017-09-13T10:17:27.153Z,39.3
2017-09-13T10:18:28.579Z,39.3
2017-09-13T10:19:29.239Z,39.3
2017-09-13T10:20:27.332Z,39.2
2017-09-13T10:21:28.879Z,39.2
2017-09-13T10:22:30.205Z,39.2
2017-09-13T10:23:26.375Z,39.2
2017-09-13T10:24:27.494Z,39.2
2017-09-13T10:25:26.924Z,39.2
2017-09-13T10:26:31.654Z,39.2
2017-09-13T10:27:26.249Z,39.1
2017-09-13T10:28:30.251Z,39.1
2017-09-13T10:29:28.923Z,39.1
2017-09-13T10:30:26.477Z,39.1
2017-09-13T10:31:26.431Z,39.1
2017-09-13T10:32:28.661Z,39
2017-09-13T10:33:28.651Z,39
2017-09-13T10:34:28.938Z,38.9
2017-09-13T10:35:27.198Z,38.9
2017-09-13T10:36:26.741Z,38.9
2017-09-13T10:37:30.133Z,38.8
2017-09-13T10:38:27.712Z,38.8
2017-09-13T10:39:30.703Z,38.8
2017-09-13T10:40:30.104Z,38.7
2017-09-13T10:41:30.317Z,38.7
2017-09-13T10:42:30.019Z,38.7
2017-09-13T10:43:27.089Z,38.7
2017-09-13T10:44:28.400Z,38.7
2017-09-13T10:45:26.957Z,38.6
2017-09-13T10:46:30.540Z,38.6
2017-09-13T10:47:27.278Z,38.5
2017-09-13T10:48:27.646Z,38.5
2017-09-13T10:49:27.867Z,38.5
2017-09-13T10:50:31.743Z,38.5
2017-09-13T10:51:29.586Z,38.5
2017-09-13T10:52:27.999Z,38.4
2017-09-13T10:53:27.449Z,38.4
2017-09-13T10:54:27.490Z,38.3
2017-09-13T10:55:29.392Z,38.3
2017-09-13T10:56:28.827Z,38.3
2017-09-13T10:57:27.818Z,38.2
2017-09-13T10:58:28.223Z,38.3
2017-09-13T10:59:28.123Z,38.3
2017-09-13T11:00:28.098Z,38.2
2017-09-13T11:01:30.508Z,38.2
2017-09-13T11:02:29.735Z,38.2
2017-09-13T11:03:30.871Z,38.1
2017-09-13T11:04:33.742Z,38.1
2017-09-13T11:05:29.817Z,38
2017-09-13T11:06:31.497Z,38
2017-09-13T11:07:31.134Z,38
2017-09-13T11:08:31.253Z,37.9
2017-09-13T11:09:28.330Z,37.9
2017-09-13T11:10:32.409Z,37.8
2017-09-13T11:11:31.321Z,37.8
2017-09-13T11:12:32.548Z,37.7
2017-09-13T11:13:29.060Z,37.7
2017-09-13T11:14:29.110Z,37.7
2017-09-13T11:15:32.196Z,37.7
2017-09-13T11:16:32.062Z,37.7
2017-09-13T11:17:30.334Z,37.7
2017-09-13T11:18:30.688Z,37.7
2017-09-13T11:19:31.246Z,37.7
2017-09-13T11:20:30.132Z,37.7
2017-09-13T11:21:30.808Z,37.7
2017-09-13T11:22:31.162Z,37.7
2017-09-13T11:23:29.579Z,37.8
2017-09-13T11:24:32.183Z,37.8
2017-09-13T11:25:31.485Z,37.9
2017-09-13T11:26:31.414Z,37.9
2017-09-13T11:27:31.421Z,37.9
2017-09-13T11:28:29.319Z,38
2017-09-13T11:29:32.826Z,38
2017-09-13T11:30:29.384Z,37.9
2017-09-13T11:31:30.069Z,37.8
2017-09-13T11:32:29.889Z,37.7
2017-09-13T11:33:30.186Z,37.6
2017-09-13T11:34:30.470Z,37.5
2017-09-13T11:35:30.989Z,37.4
2017-09-13T11:36:34.557Z,37.4
2017-09-13T11:37:30.660Z,37.3
2017-09-13T11:38:30.528Z,37.3
2017-09-13T11:39:31.611Z,37.2
2017-09-13T11:40:31.131Z,37.2
2017-09-13T11:41:30.122Z,37.1
2017-09-13T11:42:32.034Z,37
2017-09-13T11:43:30.002Z,37
2017-09-13T11:44:32.070Z,37
2017-09-13T11:45:32.308Z,37
2017-09-13T11:46:33.313Z,36.9
2017-09-13T11:47:32.962Z,36.8
2017-09-13T11:48:33.806Z,36.8
2017-09-13T11:49:30.287Z,36.8
2017-09-13T11:50:31.309Z,36.7
2017-09-13T11:51:33.962Z,36.7
2017-09-13T11:52:32.649Z,36.8
2017-09-13T11:53:33.831Z,36.8
2017-09-13T11:54:30.590Z,36.7
2017-09-13T11:55:34.205Z,36.7
2017-09-13T11:56:34.427Z,36.8
2017-09-13T11:57:31.616Z,36.9
2017-09-13T11:58:33.091Z,37
2017-09-13T11:59:34.403Z,37
2017-09-13T12:00:31.183Z,37.1
2017-09-13T12:01:31.250Z,37.1
2017-09-13T12:02:34.865Z,37.1
2017-09-13T12:03:31.722Z,37.1
2017-09-13T12:04:33.132Z,37.1
2017-09-13T12:05:33.776Z,37.1
2017-09-13T12:06:34.196Z,37.1
2017-09-13T12:07:31.863Z,37.1
2017-09-13T12:08:32.203Z,37.1
2017-09-13T12:09:34.944Z,37.1
2017-09-13T12:10:35.396Z,37.1
2017-09-13T12:11:32.170Z,37.1
2017-09-13T12:12:33.715Z,37
2017-09-13T12:13:36.743Z,36.9
2017-09-13T12:14:33.255Z,36.9
2017-09-13T12:15:33.242Z,36.9
2017-09-13T12:16:33.062Z,36.9
2017-09-13T12:17:33.301Z,36.8
2017-09-13T12:18:36.220Z,36.7
2017-09-13T12:19:36.466Z,36.7
2017-09-13T12:20:37.724Z,36.6
2017-09-13T12:21:35.449Z,36.6
2017-09-13T12:22:37.518Z,36.5
2017-09-13T12:23:36.831Z,36.5
2017-09-13T12:24:32.913Z,36.4
2017-09-13T12:25:38.033Z,36.4
2017-09-13T12:26:32.622Z,36.3
2017-09-13T12:27:32.343Z,36.3
2017-09-13T12:28:33.206Z,36.2
2017-09-13T12:29:33.077Z,36.1
2017-09-13T12:30:33.918Z,36.1
2017-09-13T12:31:34.437Z,36.1
2017-09-13T12:32:32.988Z,36.1
2017-09-13T12:33:33.342Z,36.1
2017-09-13T12:34:33.532Z,36.1
2017-09-13T12:35:33.609Z,36.1
2017-09-13T12:36:33.615Z,36.2
2017-09-13T12:37:34.092Z,36.3
2017-09-13T12:38:33.336Z,36.4
2017-09-13T12:39:35.410Z,36.4
2017-09-13T12:40:33.676Z,36.4
2017-09-13T12:41:34.933Z,36.5
2017-09-13T12:42:38.219Z,36.5
2017-09-13T12:43:38.267Z,36.5
2017-09-13T12:44:36.183Z,36.5
2017-09-13T12:45:35.885Z,36.5
2017-09-13T12:46:34.671Z,36.6
2017-09-13T12:47:39.126Z,36.6
2017-09-13T12:48:39.715Z,36.6
2017-09-13T12:49:35.503Z,36.5
2017-09-13T12:50:34.434Z,36.5
2017-09-13T12:51:35.120Z,36.4
2017-09-13T12:52:35.341Z,36.4
2017-09-13T12:53:38.833Z,36.4
2017-09-13T12:54:34.805Z,36.4
2017-09-13T12:55:38.668Z,36.5
2017-09-13T12:56:35.621Z,36.5
2017-09-13T12:57:34.481Z,36.4
2017-09-13T12:58:33.958Z,36.5
2017-09-13T12:59:34.628Z,36.5
2017-09-13T13:00:36.243Z,36.4
2017-09-13T13:01:37.137Z,36.4
2017-09-13T13:02:35.322Z,36.5
2017-09-13T13:03:38.175Z,36.5
2017-09-13T13:04:40.006Z,36.5
2017-09-13T13:05:39.332Z,36.5
2017-09-13T13:06:39.616Z,36.5
2017-09-13T13:07:34.831Z,36.5
2017-09-13T13:08:38.044Z,36.5
2017-09-13T13:09:40.148Z,36.5
2017-09-13T13:10:36.859Z,36.5
2017-09-13T13:11:38.928Z,36.6
2017-09-13T13:12:34.715Z,36.6
2017-09-13T13:13:34.963Z,36.6
2017-09-13T13:14:36.971Z,36.6
2017-09-13T13:15:36.280Z,36.6
2017-09-13T13:16:36.757Z,36.6
2017-09-13T13:17:39.238Z,36.6
2017-09-13T13:18:37.042Z,36.6
2017-09-13T13:19:37.134Z,36.6
2017-09-13T13:20:40.774Z,36.6
2017-09-13T13:21:36.544Z,36.6
2017-09-13T13:22:39.150Z,36.6
2017-09-13T13:23:35.237Z,36.6
2017-09-13T13:24:39.729Z,36.7
2017-09-13T13:25:36.231Z,36.7
2017-09-13T13:26:35.609Z,36.7
2017-09-13T13:27:35.332Z,36.7
2017-09-13T13:28:36.202Z,36.7
2017-09-13T13:29:35.518Z,36.7
2017-09-13T13:30:39.049Z,36.7
2017-09-13T13:31:37.696Z,36.7